createdAt,value
2018-11-02T00:01:22.491Z,3.93
2018-11-02T00:03:31.269Z,4.30
2018-11-02T00:05:40.016Z,3.90
2018-11-02T00:07:48.824Z,5.13
2018-11-02T00:09:57.519Z,4.30
2018-11-02T00:12:06.470Z,4.20
2018-11-02T00:14:15.948Z,3.53
2018-11-02T00:16:24.678Z,4.70
2018-11-02T00:18:33.574Z,4.70
2018-11-02T00:20:42.333Z,3.90
2018-11-02T00:22:51.047Z,3.80
2018-11-02T00:24:59.899Z,4.70
2018-11-02T00:27:09.483Z,4.65
2018-11-02T00:29:18.212Z,3.97
2018-11-02T00:31:27.044Z,4.77
2018-11-02T00:33:35.868Z,3.93
2018-11-02T00:35:45.508Z,4.20
2018-11-02T00:37:55.098Z,4.87
2018-11-02T00:40:03.898Z,4.03
2018-11-02T00:42:12.641Z,4.23
2018-11-02T00:44:21.455Z,4.10
2018-11-02T00:46:30.312Z,4.30
2018-11-02T00:48:39.124Z,4.37
2018-11-02T00:50:47.884Z,3.53
2018-11-02T00:52:58.132Z,4.20
2018-11-02T00:55:06.942Z,4.27
2018-11-02T00:57:15.757Z,4.37
2018-11-02T00:59:24.532Z,3.83
2018-11-02T01:01:34.155Z,4.00
2018-11-02T01:03:42.987Z,4.37
2018-11-02T01:05:51.982Z,4.57
2018-11-02T01:08:00.756Z,4.63
2018-11-02T01:10:09.514Z,4.20
2018-11-02T01:12:19.120Z,3.93
2018-11-02T01:14:27.832Z,4.00
2018-11-02T01:16:36.679Z,3.73
2018-11-02T01:18:45.479Z,4.03
2018-11-02T01:20:54.381Z,3.83
2018-11-02T01:23:04.108Z,4.20
2018-11-02T01:25:13.791Z,3.80
2018-11-02T01:27:22.586Z,4.83
2018-11-02T01:29:31.472Z,5.78
2018-11-02T01:31:40.128Z,4.33
2018-11-02T01:33:48.943Z,3.77
2018-11-02T01:35:57.573Z,4.23
2018-11-02T01:38:06.424Z,4.57
2018-11-02T01:40:15.093Z,4.43
2018-11-02T01:42:24.707Z,3.70
2018-11-02T01:44:33.543Z,4.30
2018-11-02T01:46:42.152Z,4.53
2018-11-02T01:48:50.974Z,4.77
2018-11-02T01:50:59.749Z,4.43
2018-11-02T01:53:08.407Z,3.70
2018-11-02T01:55:17.159Z,4.20
2018-11-02T01:57:25.898Z,5.50
2018-11-02T01:59:34.756Z,4.77
2018-11-02T02:01:43.743Z,4.40
2018-11-02T02:03:52.351Z,4.63
2018-11-02T02:06:01.143Z,4.17
2018-11-02T02:08:09.972Z,4.97
2018-11-02T02:10:18.788Z,3.93
2018-11-02T02:12:27.476Z,4.10
2018-11-02T02:14:36.382Z,4.10
2018-11-02T02:16:45.163Z,4.30
2018-11-02T02:18:53.979Z,4.30
2018-11-02T02:21:02.801Z,4.43
2018-11-02T02:23:13.162Z,3.47
2018-11-02T02:25:21.948Z,3.30
2018-11-02T02:27:30.671Z,3.87
2018-11-02T02:29:39.465Z,3.67
2018-11-02T02:31:48.073Z,4.03
2018-11-02T02:33:56.888Z,3.53
2018-11-02T02:36:06.491Z,3.47
2018-11-02T02:38:15.291Z,3.07
2018-11-02T02:40:24.129Z,3.70
2018-11-02T02:42:32.823Z,3.77
2018-11-02T02:44:41.596Z,3.43
2018-11-02T02:46:50.265Z,3.40
2018-11-02T02:48:59.012Z,3.40
2018-11-02T02:51:07.800Z,3.53
2018-11-02T02:53:17.405Z,3.60
2018-11-02T02:55:26.296Z,3.70
2018-11-02T02:57:35.046Z,3.53
2018-11-02T02:59:43.811Z,3.50
2018-11-02T03:01:52.654Z,3.33
2018-11-02T03:04:01.368Z,3.73
2018-11-02T03:06:10.066Z,3.27
2018-11-02T03:08:18.913Z,3.67
2018-11-02T03:10:27.739Z,2.70
2018-11-02T03:12:37.952Z,2.83
2018-11-02T03:14:46.806Z,2.67
2018-11-02T03:16:55.505Z,2.20
2018-11-02T03:19:04.327Z,2.33
2018-11-02T03:21:14.024Z,3.15
2018-11-02T03:23:22.891Z,1.90
2018-11-02T03:25:32.494Z,2.90
2018-11-02T03:27:41.186Z,2.27
2018-11-02T03:29:49.917Z,2.50
2018-11-02T03:31:58.764Z,2.23
2018-11-02T03:34:07.637Z,1.73
2018-11-02T03:36:16.410Z,2.47
2018-11-02T03:38:25.131Z,1.70
2018-11-02T03:40:34.674Z,1.93
2018-11-02T03:42:43.449Z,2.30
2018-11-02T03:44:52.281Z,2.40
2018-11-02T03:47:01.161Z,2.10
2018-11-02T03:49:11.467Z,1.73
2018-11-02T03:51:21.094Z,2.47
2018-11-02T03:53:30.345Z,2.30
2018-11-02T03:55:39.139Z,2.10
2018-11-02T03:57:47.899Z,1.90
2018-11-02T03:59:56.618Z,1.93
2018-11-02T04:02:05.443Z,2.20
2018-11-02T04:04:14.258Z,1.83
2018-11-02T04:06:23.283Z,2.40
2018-11-02T04:08:32.342Z,1.75
2018-11-02T04:10:40.993Z,1.93
2018-11-02T04:12:49.775Z,2.30
2018-11-02T04:14:59.434Z,1.80
2018-11-02T04:17:08.182Z,2.00
2018-11-02T04:19:16.921Z,2.47
2018-11-02T04:21:25.694Z,1.80
2018-11-02T04:23:34.413Z,2.07
2018-11-02T04:25:43.373Z,1.70
2018-11-02T04:27:52.176Z,2.80
2018-11-02T04:30:00.970Z,2.23
2018-11-02T04:32:09.923Z,1.58
2018-11-02T04:34:19.356Z,2.27
2018-11-02T04:36:28.050Z,2.27
2018-11-02T04:38:37.817Z,2.10
2018-11-02T04:40:46.611Z,2.43
2018-11-02T04:42:55.407Z,3.10
2018-11-02T04:45:04.917Z,2.50
2018-11-02T04:47:13.711Z,2.53
2018-11-02T04:49:22.487Z,3.03
2018-11-02T04:51:31.475Z,2.25
2018-11-02T04:53:40.226Z,2.43
2018-11-02T04:55:49.679Z,3.20
2018-11-02T04:57:59.358Z,2.10
2018-11-02T05:00:08.979Z,3.10
2018-11-02T05:02:17.723Z,2.77
2018-11-02T05:04:26.546Z,2.50
2018-11-02T05:06:35.358Z,2.77
2018-11-02T05:08:44.083Z,2.87
2018-11-02T05:10:52.922Z,3.13
2018-11-02T05:13:01.791Z,2.10
2018-11-02T05:15:10.632Z,2.67
2018-11-02T05:17:19.555Z,3.10
2018-11-02T05:19:28.242Z,3.00
2018-11-02T05:21:36.959Z,2.47
2018-11-02T05:23:46.744Z,2.43
2018-11-02T05:25:55.694Z,3.53
2018-11-02T05:28:04.482Z,3.27
2018-11-02T05:30:13.427Z,2.60
2018-11-02T05:32:22.221Z,3.20
2018-11-02T05:34:31.006Z,3.40
2018-11-02T05:36:39.982Z,3.37
2018-11-02T05:38:48.936Z,3.00
2018-11-02T05:40:57.706Z,3.50
2018-11-02T05:43:06.722Z,2.87
2018-11-02T05:45:16.325Z,3.47
2018-11-02T05:47:25.276Z,3.40
2018-11-02T05:49:34.043Z,3.53
2018-11-02T05:51:43.615Z,2.83
2018-11-02T05:53:52.240Z,3.47
2018-11-02T05:56:01.177Z,3.30
2018-11-02T05:58:09.996Z,3.28
2018-11-02T06:00:18.703Z,3.90
2018-11-02T06:02:27.524Z,3.10
2018-11-02T06:04:36.396Z,3.00
2018-11-02T06:06:45.163Z,2.73
2018-11-02T06:08:54.805Z,3.33
2018-11-02T06:11:04.332Z,3.33
2018-11-02T06:13:13.178Z,3.50
2018-11-02T06:15:21.974Z,3.57
2018-11-02T06:17:30.679Z,3.05
2018-11-02T06:19:39.315Z,3.55
2018-11-02T06:21:48.450Z,3.20
2018-11-02T06:23:57.256Z,2.70
2018-11-02T06:26:06.210Z,3.62
2018-11-02T06:28:15.834Z,4.30
2018-11-02T06:30:24.652Z,3.40
2018-11-02T06:32:33.425Z,3.33
2018-11-02T06:34:42.215Z,3.60
2018-11-02T06:36:50.987Z,3.83
2018-11-02T06:39:00.517Z,3.67
2018-11-02T06:41:09.475Z,4.47
2018-11-02T06:43:19.922Z,4.05
2018-11-02T06:45:28.658Z,5.18
2018-11-02T06:47:37.492Z,4.00
2018-11-02T06:49:47.070Z,4.05
2018-11-02T06:51:55.767Z,4.93
2018-11-02T06:54:04.576Z,4.65
2018-11-02T06:56:13.514Z,4.30
2018-11-02T06:58:22.978Z,4.37
2018-11-02T07:00:31.797Z,4.13
2018-11-02T07:02:40.509Z,3.53
2018-11-02T07:04:50.680Z,3.83
2018-11-02T07:07:00.417Z,4.47
2018-11-02T07:09:09.140Z,3.78
2018-11-02T07:11:18.750Z,3.62
2018-11-02T07:13:28.319Z,5.27
2018-11-02T07:15:37.155Z,6.10
2018-11-02T07:17:46.062Z,4.43
2018-11-02T07:19:54.762Z,4.22
2018-11-02T07:22:03.660Z,3.83
2018-11-02T07:24:12.440Z,3.33
2018-11-02T07:26:21.143Z,3.33
2018-11-02T07:28:29.834Z,3.00
2018-11-02T07:30:38.739Z,3.75
2018-11-02T07:32:48.315Z,3.20
2018-11-02T07:34:57.098Z,2.50
2018-11-02T07:37:05.732Z,2.57
2018-11-02T07:39:14.675Z,3.15
2018-11-02T07:41:23.478Z,3.12
2018-11-02T07:43:32.394Z,2.60
2018-11-02T07:45:41.851Z,2.90
2018-11-02T07:47:50.678Z,2.40
2018-11-02T07:49:59.347Z,2.60
2018-11-02T07:52:08.126Z,2.67
2018-11-02T07:54:17.016Z,2.90
2018-11-02T07:56:25.713Z,3.03
2018-11-02T07:58:34.487Z,2.40
2018-11-02T08:00:43.173Z,2.60
2018-11-02T08:02:52.682Z,2.43
2018-11-02T08:05:01.523Z,2.37
2018-11-02T08:07:10.411Z,2.83
2018-11-02T08:09:19.135Z,2.50
2018-11-02T08:11:27.985Z,2.60
2018-11-02T08:13:36.787Z,2.23
2018-11-02T08:15:45.595Z,2.80
2018-11-02T08:17:54.450Z,2.05
2018-11-02T08:20:03.112Z,2.27
2018-11-02T08:22:11.874Z,1.90
2018-11-02T08:24:20.858Z,1.93
2018-11-02T08:26:30.529Z,2.27
2018-11-02T08:28:39.338Z,1.57
2018-11-02T08:30:48.062Z,1.77
2018-11-02T08:32:56.815Z,1.53
2018-11-02T08:35:05.533Z,2.00
2018-11-02T08:37:14.515Z,2.03
2018-11-02T08:39:23.264Z,1.90
2018-11-02T08:41:32.879Z,2.60
2018-11-02T08:43:42.330Z,2.47
2018-11-02T08:45:51.195Z,2.40
2018-11-02T08:48:00.663Z,2.20
2018-11-02T08:50:10.237Z,2.40
2018-11-02T08:52:19.034Z,2.50
2018-11-02T08:54:28.550Z,2.60
2018-11-02T08:56:37.342Z,2.30
2018-11-02T08:58:46.461Z,3.13
2018-11-02T09:00:55.835Z,2.10
2018-11-02T09:03:04.587Z,2.83
2018-11-02T09:05:13.520Z,2.70
2018-11-02T09:07:22.253Z,3.10
2018-11-02T09:09:30.923Z,3.20
2018-11-02T09:11:39.640Z,2.70
2018-11-02T09:13:48.475Z,3.10
2018-11-02T09:15:58.042Z,3.07
2018-11-02T09:18:06.835Z,2.70
2018-11-02T09:20:15.658Z,3.30
2018-11-02T09:22:24.683Z,3.00
2018-11-02T09:24:33.623Z,2.90
2018-11-02T09:26:43.313Z,2.47
2018-11-02T09:28:52.085Z,2.50
2018-11-02T09:31:00.988Z,2.60
2018-11-02T09:33:09.887Z,2.53
2018-11-02T09:35:18.828Z,3.00
2018-11-02T09:37:28.554Z,2.40
2018-11-02T09:39:37.390Z,2.43
2018-11-02T09:41:46.239Z,3.20
2018-11-02T09:43:55.103Z,3.30
2018-11-02T09:46:04.747Z,2.50
2018-11-02T09:48:13.537Z,2.60
2018-11-02T09:50:22.287Z,3.27
2018-11-02T09:52:30.984Z,2.53
2018-11-02T09:54:39.951Z,2.70
2018-11-02T09:56:48.759Z,2.90
2018-11-02T09:58:57.485Z,2.80
2018-11-02T10:01:07.135Z,3.50
2018-11-02T10:03:15.954Z,3.03
2018-11-02T10:05:24.630Z,2.40
2018-11-02T10:07:33.570Z,2.97
2018-11-02T10:09:42.299Z,2.10
2018-11-02T10:11:51.064Z,2.60
2018-11-02T10:13:59.982Z,2.63
2018-11-02T10:16:08.758Z,2.43
2018-11-02T10:18:17.645Z,2.63
2018-11-02T10:20:27.216Z,2.30
2018-11-02T10:22:35.875Z,3.27
2018-11-02T10:24:44.763Z,2.60
2018-11-02T10:26:53.570Z,2.53
2018-11-02T10:29:02.291Z,2.95
2018-11-02T10:31:11.006Z,2.60
2018-11-02T10:33:19.858Z,3.27
2018-11-02T10:35:28.722Z,3.03
2018-11-02T10:37:37.430Z,2.70
2018-11-02T10:39:46.446Z,2.80
2018-11-02T10:41:55.175Z,2.63
2018-11-02T10:44:03.956Z,2.70
2018-11-02T10:46:12.758Z,2.43
2018-11-02T10:48:21.567Z,2.47
2018-11-02T10:50:30.450Z,2.70
2018-11-02T10:52:39.278Z,2.47
2018-11-02T10:54:48.036Z,2.07
2018-11-02T10:56:56.860Z,1.83
2018-11-02T10:59:06.517Z,1.80
2018-11-02T11:01:16.152Z,1.50
2018-11-02T11:03:24.883Z,1.80
2018-11-02T11:05:33.739Z,1.57
2018-11-02T11:07:42.564Z,1.87
2018-11-02T11:09:51.403Z,1.30
2018-11-02T11:12:01.014Z,1.80
2018-11-02T11:14:09.842Z,2.13
2018-11-02T11:16:20.068Z,1.70
2018-11-02T11:18:28.831Z,2.43
2018-11-02T11:20:37.597Z,1.97
2018-11-02T11:22:46.311Z,1.90
2018-11-02T11:24:55.096Z,1.73
2018-11-02T11:27:04.070Z,2.20
2018-11-02T11:29:12.858Z,2.20
2018-11-02T11:31:21.568Z,1.50
2018-11-02T11:33:31.167Z,1.67
2018-11-02T11:35:40.686Z,2.13
2018-11-02T11:37:50.367Z,1.57
2018-11-02T11:39:59.243Z,2.00
2018-11-02T11:42:08.894Z,2.03
2018-11-02T11:44:17.835Z,1.50
2018-11-02T11:46:27.463Z,1.93
2018-11-02T11:48:36.388Z,1.80
2018-11-02T11:50:45.331Z,2.10
2018-11-02T11:52:54.091Z,2.03
2018-11-02T11:55:02.828Z,1.70
2018-11-02T11:57:11.668Z,1.80
2018-11-02T11:59:20.550Z,1.70
2018-11-02T12:01:29.379Z,1.47
2018-11-02T12:03:38.178Z,1.60
2018-11-02T12:05:47.075Z,1.98
2018-11-02T12:07:55.895Z,1.77
2018-11-02T12:10:04.720Z,1.60
2018-11-02T12:12:13.577Z,2.00
2018-11-02T12:14:22.323Z,1.63
2018-11-02T12:16:31.119Z,1.20
2018-11-02T12:18:39.935Z,1.80
2018-11-02T12:20:48.703Z,1.77
2018-11-02T12:22:57.508Z,1.70
2018-11-02T12:25:06.356Z,1.80
2018-11-02T12:27:15.167Z,1.90
2018-11-02T12:29:24.718Z,2.03
2018-11-02T12:31:33.423Z,1.90
2018-11-02T12:33:42.234Z,1.67
2018-11-02T12:35:51.895Z,2.17
2018-11-02T12:38:02.116Z,1.40
2018-11-02T12:40:10.812Z,1.73
2018-11-02T12:42:19.783Z,1.77
2018-11-02T12:44:28.582Z,1.90
2018-11-02T12:46:37.519Z,1.50
2018-11-02T12:48:46.446Z,1.80
2018-11-02T12:50:55.101Z,1.57
2018-11-02T12:53:03.942Z,1.30
2018-11-02T12:55:12.698Z,1.27
2018-11-02T12:57:21.578Z,1.47
2018-11-02T12:59:30.311Z,1.80
2018-11-02T13:01:39.354Z,2.50
2018-11-02T13:03:48.175Z,1.80
2018-11-02T13:05:57.084Z,2.07
2018-11-02T13:08:05.839Z,1.73
2018-11-02T13:10:15.535Z,1.73
2018-11-02T13:12:24.328Z,1.90
2018-11-02T13:14:33.134Z,1.67
2018-11-02T13:16:41.974Z,1.97
2018-11-02T13:18:51.462Z,1.90
2018-11-02T13:21:00.995Z,2.13
2018-11-02T13:23:09.804Z,2.00
2018-11-02T13:25:18.642Z,2.57
2018-11-02T13:27:27.522Z,2.30
2018-11-02T13:29:36.437Z,1.90
2018-11-02T13:31:45.182Z,1.40
2018-11-02T13:33:54.036Z,1.23
2018-11-02T13:36:02.972Z,1.80
2018-11-02T13:38:11.632Z,1.77
2018-11-02T13:40:20.435Z,1.57
2018-11-02T13:42:29.295Z,1.43
2018-11-02T13:44:38.100Z,1.70
2018-11-02T13:46:47.070Z,1.40
2018-11-02T13:48:55.851Z,1.87
2018-11-02T13:51:04.656Z,1.60
2018-11-02T13:53:13.514Z,2.10
2018-11-02T13:55:22.451Z,2.13
2018-11-02T13:57:31.181Z,1.70
2018-11-02T13:59:40.135Z,1.43
2018-11-02T14:01:48.857Z,1.53
2018-11-02T14:03:57.655Z,1.40
2018-11-02T14:06:06.497Z,1.50
2018-11-02T14:08:15.216Z,1.40
2018-11-02T14:10:23.985Z,1.80
2018-11-02T14:12:32.774Z,1.23
2018-11-02T14:14:41.492Z,1.43
2018-11-02T14:16:50.244Z,1.67
2018-11-02T14:18:59.347Z,1.62
2018-11-02T14:21:08.155Z,1.17
2018-11-02T14:23:16.869Z,1.27
2018-11-02T14:25:25.727Z,1.07
2018-11-02T14:27:34.490Z,1.30
2018-11-02T14:29:44.016Z,0.90
2018-11-02T14:31:52.918Z,1.33
2018-11-02T14:34:03.220Z,1.10
2018-11-02T14:36:12.011Z,0.98
2018-11-02T14:38:20.970Z,1.37
2018-11-02T14:40:29.724Z,1.53
2018-11-02T14:42:39.291Z,2.67
2018-11-02T14:44:48.058Z,1.63
2018-11-02T14:46:57.584Z,2.20
2018-11-02T14:49:06.438Z,1.27
2018-11-02T14:51:15.399Z,1.10
2018-11-02T14:53:24.201Z,1.40
2018-11-02T14:55:33.847Z,1.67
2018-11-02T14:57:42.780Z,1.60
2018-11-02T14:59:52.525Z,1.63
2018-11-02T15:02:01.193Z,1.67
2018-11-02T15:04:09.992Z,1.53
2018-11-02T15:06:20.308Z,1.47
2018-11-02T15:08:29.207Z,1.77
2018-11-02T15:10:38.203Z,1.93
2018-11-02T15:12:46.990Z,1.30
2018-11-02T15:14:55.791Z,1.37
2018-11-02T15:17:04.730Z,1.27
2018-11-02T15:19:13.450Z,1.27
2018-11-02T15:21:22.173Z,0.90
2018-11-02T15:23:31.019Z,1.60
2018-11-02T15:25:39.779Z,1.10
2018-11-02T15:27:48.624Z,1.10
2018-11-02T15:29:57.427Z,1.27
2018-11-02T15:32:06.196Z,1.10
2018-11-02T15:34:15.031Z,1.10
2018-11-02T15:36:23.839Z,1.17
2018-11-02T15:38:32.657Z,1.20
2018-11-02T15:40:41.429Z,1.17
2018-11-02T15:42:50.299Z,1.43
2018-11-02T15:44:59.190Z,1.30
2018-11-02T15:47:08.802Z,1.47
2018-11-02T15:49:17.668Z,1.20
2018-11-02T15:51:27.370Z,1.63
2018-11-02T15:53:36.210Z,1.53
2018-11-02T15:55:45.242Z,2.33
2018-11-02T15:57:54.241Z,1.73
2018-11-02T16:00:02.854Z,1.77
2018-11-02T16:02:11.603Z,1.90
2018-11-02T16:04:20.423Z,1.90
2018-11-02T16:06:29.219Z,1.73
2018-11-02T16:08:38.869Z,1.60
2018-11-02T16:10:47.459Z,2.00
2018-11-02T16:12:56.301Z,2.10
2018-11-02T16:15:05.110Z,2.00
2018-11-02T16:17:13.910Z,1.83
2018-11-02T16:19:22.702Z,2.00
2018-11-02T16:21:31.636Z,1.40
2018-11-02T16:23:40.472Z,1.70
2018-11-02T16:25:49.907Z,1.60
2018-11-02T16:27:58.766Z,1.80
2018-11-02T16:30:07.549Z,1.80
2018-11-02T16:32:16.267Z,1.93
2018-11-02T16:34:25.227Z,1.50
2018-11-02T16:36:34.839Z,1.60
2018-11-02T16:38:43.630Z,1.37
2018-11-02T16:40:52.400Z,1.30
2018-11-02T16:43:01.095Z,1.30
2018-11-02T16:45:09.847Z,1.23
2018-11-02T16:47:18.682Z,1.67
2018-11-02T16:49:27.420Z,1.77
2018-11-02T16:51:37.579Z,1.77
2018-11-02T16:53:46.647Z,1.80
2018-11-02T16:55:55.255Z,2.27
2018-11-02T16:58:04.124Z,1.93
2018-11-02T17:00:13.019Z,2.17
2018-11-02T17:02:21.926Z,1.40
2018-11-02T17:04:30.716Z,1.63
2018-11-02T17:06:39.449Z,1.50
2018-11-02T17:08:48.162Z,1.67
2018-11-02T17:10:56.840Z,2.00
2018-11-02T17:13:05.723Z,2.45
2018-11-02T17:15:14.502Z,2.03
2018-11-02T17:17:24.130Z,2.27
2018-11-02T17:19:33.818Z,2.70
2018-11-02T17:21:42.658Z,2.03
2018-11-02T17:23:51.395Z,2.00
2018-11-02T17:26:00.206Z,2.20
2018-11-02T17:28:08.978Z,2.90
2018-11-02T17:30:17.772Z,2.40
2018-11-02T17:32:26.604Z,2.20
2018-11-02T17:34:35.383Z,2.60
2018-11-02T17:36:44.387Z,2.53
2018-11-02T17:38:53.001Z,2.63
2018-11-02T17:41:01.782Z,2.10
2018-11-02T17:43:10.727Z,2.30
2018-11-02T17:45:21.193Z,2.87
2018-11-02T17:47:30.014Z,3.13
2018-11-02T17:49:39.510Z,2.80
2018-11-02T17:51:48.369Z,2.73
2018-11-02T17:53:57.148Z,2.40
2018-11-02T17:56:06.689Z,2.50
2018-11-02T17:58:16.261Z,2.37
2018-11-02T18:00:25.057Z,2.20
2018-11-02T18:02:33.867Z,2.20
2018-11-02T18:04:43.219Z,2.67
2018-11-02T18:06:52.138Z,2.40
2018-11-02T18:09:00.960Z,1.93
2018-11-02T18:11:09.902Z,2.40
2018-11-02T18:13:18.610Z,2.70
2018-11-02T18:15:28.121Z,2.43
2018-11-02T18:17:36.983Z,2.10
2018-11-02T18:19:45.799Z,2.33
2018-11-02T18:21:54.685Z,2.70
2018-11-02T18:24:03.379Z,2.37
2018-11-02T18:26:12.320Z,2.60
2018-11-02T18:28:21.171Z,2.63
2018-11-02T18:30:30.021Z,2.10
2018-11-02T18:32:38.807Z,2.23
2018-11-02T18:34:47.552Z,2.20
2018-11-02T18:36:56.359Z,2.40
2018-11-02T18:39:05.219Z,2.80
2018-11-02T18:41:13.975Z,3.20
2018-11-02T18:43:23.668Z,2.23
2018-11-02T18:45:32.411Z,2.60
2018-11-02T18:47:41.225Z,2.60
2018-11-02T18:49:50.919Z,2.60
2018-11-02T18:51:59.674Z,2.50
2018-11-02T18:54:08.531Z,2.33
2018-11-02T18:56:17.382Z,2.30
2018-11-02T18:58:26.958Z,2.47
2018-11-02T19:00:35.790Z,2.80
2018-11-02T19:02:44.829Z,2.73
2018-11-02T19:04:53.524Z,2.60
2018-11-02T19:07:02.363Z,2.50
2018-11-02T19:09:11.104Z,2.23
2018-11-02T19:11:19.939Z,2.70
2018-11-02T19:13:28.873Z,2.30
2018-11-02T19:15:37.749Z,2.87
2018-11-02T19:17:46.640Z,2.80
2018-11-02T19:19:57.058Z,2.13
2018-11-02T19:22:05.775Z,2.33
2018-11-02T19:24:14.591Z,2.80
2018-11-02T19:26:23.306Z,2.60
2018-11-02T19:28:32.255Z,2.67
2018-11-02T19:30:41.042Z,2.30
2018-11-02T19:32:50.560Z,2.50
2018-11-02T19:34:59.675Z,2.80
2018-11-02T19:37:08.213Z,2.23
2018-11-02T19:39:17.030Z,2.80
2018-11-02T19:41:26.035Z,2.83
2018-11-02T19:43:34.871Z,2.60
2018-11-02T19:45:43.564Z,2.90
2018-11-02T19:47:53.856Z,2.87
2018-11-02T19:50:02.676Z,2.60
2018-11-02T19:52:11.447Z,2.67
2018-11-02T19:54:20.378Z,2.63
2018-11-02T19:56:29.238Z,3.53
2018-11-02T19:58:38.048Z,4.70
2018-11-02T20:00:47.164Z,3.13
2018-11-02T20:02:56.038Z,2.90
2018-11-02T20:05:04.808Z,3.50
2018-11-02T20:07:13.654Z,3.40
2018-11-02T20:09:23.113Z,3.37
2018-11-02T20:11:31.789Z,3.80
2018-11-02T20:13:40.650Z,3.50
2018-11-02T20:15:49.395Z,3.33
2018-11-02T20:17:58.923Z,4.10
2018-11-02T20:20:07.798Z,3.30
2018-11-02T20:22:16.687Z,3.20
2018-11-02T20:24:26.209Z,2.70
2018-11-02T20:26:35.180Z,3.90
2018-11-02T20:28:44.780Z,2.97
2018-11-02T20:30:53.629Z,3.27
2018-11-02T20:33:03.920Z,3.50
2018-11-02T20:35:12.715Z,3.83
2018-11-02T20:37:21.527Z,2.97
2018-11-02T20:39:30.453Z,3.20
2018-11-02T20:41:39.278Z,3.63
2018-11-02T20:43:48.067Z,3.43
2018-11-02T20:45:57.632Z,3.77
2018-11-02T20:48:06.556Z,3.80
2018-11-02T20:50:16.150Z,3.73
2018-11-02T20:52:25.115Z,3.37
2018-11-02T20:54:33.994Z,3.43
2018-11-02T20:56:42.907Z,2.92
2018-11-02T20:58:51.774Z,3.00
2018-11-02T21:01:00.582Z,3.03
2018-11-02T21:03:09.387Z,3.70
2018-11-02T21:05:19.079Z,4.17
2018-11-02T21:07:28.029Z,3.20
2018-11-02T21:09:37.065Z,2.67
2018-11-02T21:11:45.833Z,3.40
2018-11-02T21:13:56.530Z,3.50
2018-11-02T21:16:05.420Z,3.07
2018-11-02T21:18:14.171Z,3.20
2018-11-02T21:20:22.890Z,4.00
2018-11-02T21:22:32.546Z,3.60
2018-11-02T21:24:41.463Z,3.60
2018-11-02T21:26:50.940Z,4.03
2018-11-02T21:28:59.770Z,3.80
2018-11-02T21:31:08.477Z,3.63
2018-11-02T21:33:17.984Z,4.23
2018-11-02T21:35:26.787Z,4.15
2018-11-02T21:37:35.651Z,3.50
2018-11-02T21:39:45.265Z,3.60
2018-11-02T21:41:53.991Z,3.73
2018-11-02T21:44:02.795Z,4.67
2018-11-02T21:46:11.527Z,4.50
2018-11-02T21:48:20.260Z,2.90
2018-11-02T21:50:29.047Z,3.50
2018-11-02T21:52:37.782Z,3.17
2018-11-02T21:54:47.392Z,3.23
2018-11-02T21:56:56.240Z,3.30
2018-11-02T21:59:04.972Z,3.33
2018-11-02T22:01:13.688Z,3.87
2018-11-02T22:03:22.483Z,2.83
2018-11-02T22:05:31.298Z,2.77
2018-11-02T22:07:40.934Z,2.50
2018-11-02T22:09:49.720Z,2.20
2018-11-02T22:11:59.378Z,3.23
2018-11-02T22:14:08.238Z,3.70
2018-11-02T22:16:17.794Z,4.30
2018-11-02T22:18:26.695Z,5.40
2018-11-02T22:20:35.523Z,4.13
2018-11-02T22:22:44.321Z,3.90
2018-11-02T22:24:53.947Z,3.97
2018-11-02T22:27:02.821Z,4.13
2018-11-02T22:29:11.640Z,4.07
2018-11-02T22:31:20.391Z,4.00
2018-11-02T22:33:29.157Z,4.53
2018-11-02T22:35:38.819Z,3.10
2018-11-02T22:37:47.785Z,4.53
2018-11-02T22:39:56.723Z,3.45
2018-11-02T22:42:05.388Z,3.43
2018-11-02T22:44:14.958Z,3.03
2018-11-02T22:46:23.787Z,3.40
2018-11-02T22:48:32.809Z,2.97
2018-11-02T22:50:41.543Z,3.47
2018-11-02T22:52:50.326Z,3.30
2018-11-02T22:54:59.046Z,3.30
2018-11-02T22:57:08.610Z,3.70
2018-11-02T22:59:19.189Z,3.62
2018-11-02T23:01:28.226Z,3.53
2018-11-02T23:03:36.902Z,3.27
2018-11-02T23:05:45.793Z,3.33
2018-11-02T23:07:54.397Z,3.80
2018-11-02T23:10:03.191Z,3.57
2018-11-02T23:12:11.963Z,3.40
2018-11-02T23:14:20.822Z,3.40
2018-11-02T23:16:30.429Z,4.20
2018-11-02T23:18:39.355Z,3.17
2018-11-02T23:20:48.221Z,4.20
2018-11-02T23:22:57.122Z,3.67
2018-11-02T23:25:05.838Z,4.07
2018-11-02T23:27:15.401Z,3.30
2018-11-02T23:29:25.784Z,3.57
2018-11-02T23:31:34.568Z,3.83
2018-11-02T23:33:43.416Z,4.03
2018-11-02T23:35:52.197Z,3.30
2018-11-02T23:38:01.012Z,2.90
2018-11-02T23:40:09.951Z,3.40
2018-11-02T23:42:19.456Z,3.53
2018-11-02T23:44:29.007Z,3.22
2018-11-02T23:46:37.883Z,3.33
2018-11-02T23:48:46.666Z,3.03
2018-11-02T23:50:56.281Z,3.40
2018-11-02T23:53:05.161Z,3.00
2018-11-02T23:55:15.028Z,3.60
2018-11-02T23:57:23.794Z,3.33
2018-11-02T23:59:33.542Z,3.75
